Time;durP1;ratioP1;P1;durP2;ratioP2;P2;SDS_P1;SDS_P2;PMS_P1;PMS_P2;Temp;Humidity;BMP_temperature;BMP_pressure;BME280_temperature;BME280_humidity;BME280_pressure;Samples;Min_cycle;Max_cycle;Signal;HPM_P1;HPM_P2
2023/05/29 00:01:13;;;;;;;7.55;3.65;;;13.20;99.90;;;;;;5018876;28;20075;-77
2023/05/29 00:03:39;;;;;;;4.10;3.28;;;13.10;99.90;;;;;;5018673;28;20022;-77
2023/05/29 00:06:05;;;;;;;6.53;3.50;;;13.10;99.90;;;;;;5036074;28;20022;-76
2023/05/29 00:08:32;;;;;;;5.95;3.50;;;13.10;99.90;;;;;;5018382;28;20027;-76
2023/05/29 00:10:58;;;;;;;7.72;3.97;;;13.20;99.90;;;;;;5035872;28;20076;-76
2023/05/29 00:13:23;;;;;;;5.57;3.67;;;13.10;99.90;;;;;;5018304;28;20030;-76
2023/05/29 00:15:49;;;;;;;10.90;4.25;;;13.10;99.90;;;;;;5018198;28;20036;-77
2023/05/29 00:18:15;;;;;;;9.98;3.78;;;13.10;99.90;;;;;;5018658;28;20041;-77
2023/05/29 00:20:40;;;;;;;6.72;4.18;;;13.10;99.90;;;;;;5035929;28;20494;-76
2023/05/29 00:23:07;;;;;;;8.50;3.38;;;13.10;99.90;;;;;;5018046;28;20029;-76
2023/05/29 00:25:33;;;;;;;4.60;2.92;;;13.10;99.90;;;;;;5017621;28;20028;-77
2023/05/29 00:27:59;;;;;;;8.95;3.63;;;13.00;99.90;;;;;;5017981;28;20088;-76
2023/05/29 00:30:24;;;;;;;6.38;3.05;;;13.00;99.90;;;;;;5036704;28;20029;-78
2023/05/29 00:32:51;;;;;;;7.65;3.67;;;12.90;99.90;;;;;;5018313;28;20029;-77
2023/05/29 00:35:18;;;;;;;7.97;3.42;;;12.90;99.90;;;;;;5018290;28;20060;-76
2023/05/29 00:37:43;;;;;;;5.38;3.22;;;12.80;99.90;;;;;;5034953;28;20556;-77
2023/05/29 00:40:11;;;;;;;4.85;3.15;;;12.80;99.90;;;;;;5017700;28;20025;-77
2023/05/29 00:42:36;;;;;;;4.32;3.20;;;12.80;99.90;;;;;;5035561;28;20017;-77
2023/05/29 00:45:03;;;;;;;13.70;3.95;;;12.80;99.90;;;;;;5017386;28;20037;-76
2023/05/29 00:47:29;;;;;;;10.60;4.10;;;12.80;99.90;;;;;;5035139;28;20022;-75
2023/05/29 00:49:56;;;;;;;5.22;3.65;;;12.80;99.90;;;;;;5035336;28;20029;-76
2023/05/29 00:52:24;;;;;;;6.35;3.50;;;12.80;99.90;;;;;;5018702;28;20448;-77
2023/05/29 00:54:50;;;;;;;4.68;3.22;;;12.80;99.90;;;;;;5017817;28;20084;-77
2023/05/29 00:57:16;;;;;;;7.03;3.10;;;12.60;99.90;;;;;;5017508;28;20083;-77
2023/05/29 00:59:43;;;;;;;5.35;3.53;;;12.70;99.90;;;;;;5036135;28;20053;-77
2023/05/29 01:02:10;;;;;;;7.13;3.83;;;12.70;99.90;;;;;;5018394;28;20021;-76
2023/05/29 01:04:36;;;;;;;8.32;4.20;;;12.50;99.90;;;;;;5018099;28;20029;-77
2023/05/29 01:07:03;;;;;;;5.43;4.18;;;12.40;99.90;;;;;;5017736;28;20030;-76
2023/05/29 01:09:30;;;;;;;6.53;3.42;;;12.40;99.90;;;;;;5017169;28;20026;-76
2023/05/29 01:12:38;;;;;;;2.97;2.67;;;12.30;99.90;;;;;;5017932;28;20496;-76
2023/05/29 01:15:22;;;;;;;4.53;3.53;;;12.30;99.90;;;;;;5017330;28;20482;-78
2023/05/29 01:18:31;;;;;;;7.45;3.22;;;12.30;99.90;;;;;;5017261;28;20069;-76
2023/05/29 01:21:39;;;;;;;7.57;3.58;;;12.30;99.90;;;;;;5015681;28;20030;-78
2023/05/29 01:24:13;;;;;;;5.32;3.20;;;12.30;99.90;;;;;;4997088;28;20098;-76
2023/05/29 01:27:03;;;;;;;9.07;3.63;;;12.20;99.90;;;;;;5034613;28;20425;-78
2023/05/29 01:29:32;;;;;;;7.18;3.80;;;12.20;99.90;;;;;;5016353;28;20093;-76
2023/05/29 01:31:59;;;;;;;6.00;3.90;;;12.20;99.90;;;;;;5034463;28;20041;-77
2023/05/29 01:34:24;;;;;;;5.78;3.97;;;12.20;99.90;;;;;;5023469;28;20121;-77
2023/05/29 01:36:50;;;;;;;5.93;3.47;;;12.20;99.90;;;;;;4995709;28;20058;-78
2023/05/29 01:39:18;;;;;;;6.13;3.83;;;12.20;99.90;;;;;;5013686;28;20026;-77
2023/05/29 01:41:45;;;;;;;10.82;3.78;;;12.10;99.90;;;;;;4995968;28;20030;-78
2023/05/29 01:44:13;;;;;;;6.53;3.75;;;12.10;99.90;;;;;;4995701;28;20018;-78
2023/05/29 01:46:42;;;;;;;8.23;3.88;;;12.10;99.90;;;;;;4995536;28;20114;-76
2023/05/29 01:49:10;;;;;;;7.05;3.58;;;12.10;99.90;;;;;;5013183;28;20018;-78
2023/05/29 01:51:37;;;;;;;4.35;3.38;;;12.00;99.90;;;;;;5013511;28;20030;-78
2023/05/29 01:54:03;;;;;;;7.47;3.55;;;12.00;99.90;;;;;;4999664;28;20026;-75
2023/05/29 01:56:30;;;;;;;8.20;3.83;;;12.00;99.90;;;;;;4998885;28;20399;-77
2023/05/29 01:58:57;;;;;;;6.60;3.97;;;12.00;99.90;;;;;;4998754;28;20029;-76
2023/05/29 02:01:23;;;;;;;8.65;3.95;;;11.90;99.90;;;;;;5016591;28;20053;-78
2023/05/29 02:03:49;;;;;;;7.00;3.22;;;12.00;99.90;;;;;;5016215;28;20045;-77
2023/05/29 02:06:15;;;;;;;8.73;4.15;;;11.90;99.90;;;;;;4999189;28;20026;-77
2023/05/29 02:08:40;;;;;;;10.52;4.07;;;11.90;99.90;;;;;;5002285;28;20101;-78
2023/05/29 02:11:06;;;;;;;7.88;4.90;;;11.90;99.90;;;;;;5000429;28;20072;-78
2023/05/29 02:13:32;;;;;;;7.38;4.25;;;11.90;99.90;;;;;;5018906;28;20533;-78
2023/05/29 02:15:58;;;;;;;7.25;3.60;;;11.90;99.90;;;;;;5002411;28;20025;-76
2023/05/29 02:18:23;;;;;;;5.78;4.05;;;11.90;99.90;;;;;;5000476;28;20026;-75
2023/05/29 02:20:49;;;;;;;9.65;4.35;;;11.80;99.90;;;;;;5018182;28;20069;-75
2023/05/29 02:23:15;;;;;;;6.65;3.28;;;11.80;99.90;;;;;;5000952;28;20089;-75
2023/05/29 02:25:41;;;;;;;6.03;3.92;;;11.80;99.90;;;;;;5018049;28;20102;-76
2023/05/29 02:28:07;;;;;;;5.43;3.20;;;11.80;99.90;;;;;;5018088;28;20022;-77
2023/05/29 02:30:34;;;;;;;5.72;3.92;;;11.80;99.90;;;;;;5018120;28;20077;-77
2023/05/29 02:33:00;;;;;;;4.80;3.08;;;11.70;99.90;;;;;;5017955;28;20160;-78
2023/05/29 02:35:25;;;;;;;6.30;3.15;;;11.70;99.90;;;;;;5000510;28;20498;-77
2023/05/29 02:37:52;;;;;;;5.85;3.65;;;11.60;99.90;;;;;;5018401;28;20033;-78
2023/05/29 02:40:19;;;;;;;7.03;3.05;;;11.60;99.90;;;;;;5000128;28;20026;-76
2023/05/29 02:42:44;;;;;;;5.95;3.45;;;11.50;99.90;;;;;;5017690;28;20025;-76
2023/05/29 02:45:10;;;;;;;6.97;3.80;;;11.50;99.90;;;;;;5017468;28;20050;-76
2023/05/29 02:47:36;;;;;;;5.43;3.78;;;11.50;99.90;;;;;;5000248;28;20103;-77
2023/05/29 02:50:02;;;;;;;7.43;3.97;;;11.50;99.90;;;;;;5000240;28;20030;-76
2023/05/29 02:52:30;;;;;;;6.18;3.83;;;11.50;99.90;;;;;;5018067;28;20056;-74
2023/05/29 02:54:56;;;;;;;5.88;3.85;;;11.50;99.90;;;;;;4999827;28;20026;-76
2023/05/29 02:57:22;;;;;;;8.15;4.10;;;11.50;99.90;;;;;;4999866;28;20037;-76
2023/05/29 02:59:47;;;;;;;6.75;4.15;;;11.40;99.90;;;;;;4999767;28;20390;-76
2023/05/29 03:02:13;;;;;;;6.38;3.85;;;11.40;99.90;;;;;;4999917;28;20028;-74
2023/05/29 03:04:39;;;;;;;9.38;4.47;;;11.30;99.90;;;;;;5016597;28;20098;-74
2023/05/29 03:07:04;;;;;;;4.80;3.40;;;11.40;99.90;;;;;;5017666;28;20032;-75
2023/05/29 03:09:30;;;;;;;8.88;3.38;;;11.30;99.90;;;;;;5000132;28;20084;-77
2023/05/29 03:11:56;;;;;;;4.85;3.45;;;11.30;99.90;;;;;;4999510;28;20026;-78
2023/05/29 03:14:21;;;;;;;7.03;3.88;;;11.30;99.90;;;;;;5017633;28;20018;-75
2023/05/29 03:16:49;;;;;;;5.00;3.63;;;11.30;99.90;;;;;;4999876;28;20033;-75
2023/05/29 03:19:15;;;;;;;3.60;2.65;;;11.20;99.90;;;;;;5000084;28;20026;-76
2023/05/29 03:21:40;;;;;;;6.30;3.55;;;11.10;99.90;;;;;;4999662;28;20030;-76
2023/05/29 03:24:06;;;;;;;7.68;4.03;;;11.10;99.90;;;;;;5000020;28;20030;-77
2023/05/29 03:26:32;;;;;;;5.75;3.70;;;11.20;99.90;;;;;;5017519;28;20048;-76
2023/05/29 03:28:57;;;;;;;6.05;3.67;;;11.20;99.90;;;;;;4999628;28;20026;-75
2023/05/29 03:31:23;;;;;;;6.72;3.85;;;11.30;99.90;;;;;;5017560;28;20032;-76
2023/05/29 03:33:49;;;;;;;8.38;4.07;;;11.40;99.90;;;;;;4998972;28;20436;-76
2023/05/29 03:36:16;;;;;;;5.13;4.18;;;11.40;99.90;;;;;;5017085;28;20433;-77
2023/05/29 03:38:43;;;;;;;4.75;3.70;;;11.40;99.90;;;;;;5016473;28;20491;-76
2023/05/29 03:41:08;;;;;;;10.57;5.15;;;11.40;99.90;;;;;;5016791;28;20080;-76
2023/05/29 03:43:34;;;;;;;7.45;4.90;;;11.40;99.90;;;;;;4999926;28;20501;-75
2023/05/29 03:46:00;;;;;;;7.78;3.92;;;11.40;99.90;;;;;;5016735;28;20442;-76
2023/05/29 03:48:25;;;;;;;9.73;4.00;;;11.50;99.90;;;;;;4998983;28;20025;-77
2023/05/29 03:50:51;;;;;;;5.35;3.55;;;11.50;99.90;;;;;;4999340;28;20036;-78
2023/05/29 03:53:17;;;;;;;5.55;3.22;;;11.50;99.90;;;;;;5016493;28;20033;-76
2023/05/29 03:55:42;;;;;;;8.75;3.83;;;11.60;99.90;;;;;;5016672;28;20033;-76
2023/05/29 03:58:08;;;;;;;6.70;4.05;;;11.60;99.90;;;;;;5016801;28;20029;-77
2023/05/29 04:00:33;;;;;;;9.75;3.88;;;11.80;99.90;;;;;;5016884;28;20026;-76
2023/05/29 04:02:59;;;;;;;7.75;4.13;;;11.80;99.90;;;;;;5016855;28;20022;-75
2023/05/29 04:05:25;;;;;;;5.93;3.67;;;11.80;99.90;;;;;;5017057;28;20483;-76
2023/05/29 04:07:52;;;;;;;7.53;4.25;;;11.90;99.90;;;;;;4998928;28;20042;-76
2023/05/29 04:10:18;;;;;;;7.18;3.47;;;11.80;99.90;;;;;;4998555;28;20025;-77
2023/05/29 04:12:44;;;;;;;7.65;4.07;;;11.90;99.90;;;;;;4998942;28;20044;-76
2023/05/29 04:15:10;;;;;;;7.25;4.05;;;11.90;99.90;;;;;;4998464;28;20030;-76
2023/05/29 04:17:35;;;;;;;8.50;3.78;;;12.00;99.90;;;;;;4998667;28;20038;-76
2023/05/29 04:20:07;;;;;;;10.15;4.32;;;12.00;99.90;;;;;;4998449;28;20026;-75
2023/05/29 04:22:33;;;;;;;6.75;3.97;;;12.10;99.90;;;;;;4998757;28;20032;-76
2023/05/29 04:24:59;;;;;;;9.50;4.53;;;12.10;99.90;;;;;;5015775;28;20018;-76
2023/05/29 04:27:25;;;;;;;11.02;4.55;;;12.20;99.90;;;;;;5015823;28;20486;-76
2023/05/29 04:29:50;;;;;;;7.80;4.45;;;12.30;99.90;;;;;;5016440;28;20055;-76
2023/05/29 04:32:16;;;;;;;8.10;4.43;;;12.40;99.90;;;;;;5015998;28;20105;-76
2023/05/29 04:34:43;;;;;;;6.40;3.97;;;12.50;99.90;;;;;;4997463;28;20026;-76
2023/05/29 04:37:09;;;;;;;9.75;4.65;;;12.50;99.90;;;;;;4998052;28;20026;-76
2023/05/29 04:39:35;;;;;;;7.50;4.50;;;12.60;99.90;;;;;;4997591;28;20036;-76
2023/05/29 04:42:00;;;;;;;10.10;3.92;;;12.90;99.90;;;;;;5015434;28;20022;-76
2023/05/29 04:44:26;;;;;;;6.30;3.67;;;13.10;99.90;;;;;;4998022;28;20486;-76
2023/05/29 04:46:53;;;;;;;7.20;3.72;;;13.10;99.90;;;;;;4998538;28;20026;-76
2023/05/29 04:49:20;;;;;;;6.95;4.72;;;13.30;99.90;;;;;;5015362;28;20050;-76
2023/05/29 04:51:46;;;;;;;9.30;4.30;;;13.50;99.90;;;;;;4998241;28;20278;-76
2023/05/29 04:54:12;;;;;;;6.95;3.85;;;13.60;99.90;;;;;;4998709;28;20037;-76
2023/05/29 04:56:39;;;;;;;7.22;3.50;;;13.80;99.90;;;;;;5015962;28;20030;-74
2023/05/29 04:59:06;;;;;;;7.00;3.70;;;13.90;99.90;;;;;;5015798;28;20162;-76
2023/05/29 05:01:33;;;;;;;9.00;3.83;;;13.90;99.90;;;;;;4998532;28;20026;-76
2023/05/29 05:04:00;;;;;;;7.50;4.47;;;14.10;99.90;;;;;;5016129;28;20018;-75
2023/05/29 05:06:26;;;;;;;7.90;3.97;;;14.10;99.90;;;;;;4998662;28;20022;-76
2023/05/29 05:08:53;;;;;;;5.50;3.75;;;14.20;99.90;;;;;;4998103;28;20601;-76
2023/05/29 05:11:18;;;;;;;8.90;3.92;;;14.40;99.90;;;;;;5015987;28;20021;-76
2023/05/29 05:13:44;;;;;;;5.95;4.20;;;14.50;99.90;;;;;;4998594;28;20037;-75
2023/05/29 05:16:10;;;;;;;7.28;3.78;;;14.60;99.90;;;;;;5015749;28;20025;-77
2023/05/29 05:18:36;;;;;;;9.82;4.28;;;14.60;99.90;;;;;;4997795;28;20036;-76
2023/05/29 05:21:03;;;;;;;6.88;4.70;;;14.80;99.90;;;;;;5015530;28;20032;-77
2023/05/29 05:23:30;;;;;;;10.82;5.28;;;14.90;99.90;;;;;;5017321;28;20049;-79
2023/05/29 05:25:55;;;;;;;7.18;5.10;;;15.10;99.90;;;;;;4996448;28;20458;-75
2023/05/29 05:28:21;;;;;;;10.73;4.68;;;15.20;99.90;;;;;;5015983;28;20025;-76
2023/05/29 05:30:47;;;;;;;3.70;2.72;;;15.40;99.90;;;;;;5002197;28;20022;-77
2023/05/29 05:33:13;;;;;;;6.88;2.88;;;16.50;99.90;;;;;;5020817;28;20026;-78
2023/05/29 05:35:38;;;;;;;5.38;3.20;;;17.30;99.90;;;;;;5038393;28;20025;-78
2023/05/29 05:38:04;;;;;;;5.68;3.63;;;17.60;99.90;;;;;;5039846;28;20105;-77
2023/05/29 05:40:30;;;;;;;6.57;3.35;;;18.10;99.90;;;;;;5021713;28;20025;-78
2023/05/29 05:42:56;;;;;;;6.30;3.78;;;18.30;99.90;;;;;;5038434;28;20072;-77
2023/05/29 05:45:21;;;;;;;4.78;3.30;;;18.30;99.40;;;;;;5021350;28;20028;-76
2023/05/29 05:47:47;;;;;;;5.13;3.33;;;18.40;99.00;;;;;;5038594;28;20415;-77
2023/05/29 05:50:13;;;;;;;6.25;3.13;;;18.50;97.70;;;;;;5039063;28;20076;-78
2023/05/29 05:52:38;;;;;;;5.55;3.45;;;18.70;97.60;;;;;;5037809;28;20503;-75
2023/05/29 05:55:04;;;;;;;8.00;5.30;;;18.50;96.60;;;;;;5018435;28;20030;-76
2023/05/29 05:57:32;;;;;;;7.50;3.05;;;18.30;96.90;;;;;;5018306;28;20026;-76
2023/05/29 06:00:07;;;;;;;5.60;3.08;;;18.10;97.10;;;;;;5018705;28;20032;-76
2023/05/29 06:02:33;;;;;;;;;;;17.90;97.20;;;;;;5018758;28;20022;-76
2023/05/29 06:04:59;;;;;;;;;;;18.00;96.90;;;;;;5036275;28;19913;-77
2023/05/29 06:07:24;;;;;;;4.97;2.47;;;18.00;96.90;;;;;;5035810;28;19966;-76
2023/05/29 06:09:50;;;;;;;6.05;3.10;;;18.00;97.30;;;;;;5018276;28;20406;-76
2023/05/29 06:12:16;;;;;;;7.53;3.60;;;18.20;96.50;;;;;;5018509;28;20025;-76
2023/05/29 06:14:41;;;;;;;6.22;3.25;;;18.20;96.30;;;;;;5018323;28;20053;-78
2023/05/29 06:17:07;;;;;;;7.50;3.45;;;18.20;96.30;;;;;;5017382;28;20061;-76
2023/05/29 06:19:33;;;;;;;6.80;3.08;;;18.40;96.00;;;;;;5017369;28;20076;-75
2023/05/29 06:21:58;;;;;;;7.25;3.20;;;18.50;95.20;;;;;;5035536;28;20029;-76
2023/05/29 06:24:24;;;;;;;4.72;3.03;;;18.40;94.40;;;;;;5016957;28;20056;-76
2023/05/29 06:26:50;;;;;;;5.15;3.25;;;18.50;94.60;;;;;;5016853;28;20117;-76
2023/05/29 06:29:16;;;;;;;8.85;3.80;;;18.70;95.10;;;;;;5017101;28;20053;-76
2023/05/29 06:31:41;;;;;;;4.60;2.75;;;18.80;94.50;;;;;;5017760;28;20029;-77
2023/05/29 06:34:07;;;;;;;5.30;3.10;;;18.90;94.20;;;;;;5035179;28;20022;-75
2023/05/29 06:36:32;;;;;;;4.13;2.95;;;19.00;94.70;;;;;;5037019;28;20021;-78
2023/05/29 06:38:58;;;;;;;5.57;2.85;;;19.30;94.60;;;;;;5016460;28;20032;-76
2023/05/29 06:41:24;;;;;;;4.00;2.35;;;19.30;94.10;;;;;;5017730;28;20022;-76
2023/05/29 06:43:51;;;;;;;3.88;2.55;;;19.10;93.40;;;;;;5017272;28;20022;-76
2023/05/29 06:46:17;;;;;;;7.88;3.03;;;19.10;93.70;;;;;;5016994;28;20022;-76
2023/05/29 06:48:43;;;;;;;5.18;2.78;;;19.20;93.70;;;;;;5016653;28;20393;-76
2023/05/29 06:51:11;;;;;;;6.47;3.10;;;19.30;94.30;;;;;;5016703;28;20029;-76
2023/05/29 06:53:37;;;;;;;6.03;2.80;;;19.50;93.60;;;;;;5017376;28;20026;-76
2023/05/29 06:56:03;;;;;;;4.80;3.00;;;19.70;92.90;;;;;;5016362;28;20033;-76
2023/05/29 06:58:30;;;;;;;7.43;3.17;;;19.70;92.30;;;;;;5034164;28;20021;-76
2023/05/29 07:00:56;;;;;;;7.57;3.22;;;19.90;91.50;;;;;;5034204;28;20028;-76
2023/05/29 07:03:21;;;;;;;7.85;2.90;;;20.00;91.70;;;;;;5016785;28;20026;-76
2023/05/29 07:05:47;;;;;;;4.82;2.78;;;20.10;90.80;;;;;;5015993;28;20025;-76
2023/05/29 07:08:13;;;;;;;6.63;3.13;;;20.20;91.80;;;;;;5033439;28;20024;-77
2023/05/29 07:10:38;;;;;;;4.35;2.90;;;20.40;90.60;;;;;;5016306;28;20022;-77
2023/05/29 07:13:06;;;;;;;4.05;2.53;;;20.50;88.70;;;;;;5034162;28;20053;-76
2023/05/29 07:15:32;;;;;;;6.00;2.72;;;20.90;85.70;;;;;;5034556;28;20025;-77
2023/05/29 07:17:57;;;;;;;4.25;2.65;;;21.10;81.90;;;;;;4975931;28;1194028;-77
2023/05/29 07:20:23;;;;;;;7.15;2.20;;;21.40;82.60;;;;;;5017489;28;20021;-77
2023/05/29 07:22:49;;;;;;;4.85;2.50;;;21.40;77.00;;;;;;5034705;28;20021;-75
2023/05/29 07:25:15;;;;;;;4.82;2.60;;;21.30;76.60;;;;;;5016944;28;20025;-76
2023/05/29 07:27:40;;;;;;;5.05;2.47;;;21.30;74.50;;;;;;5017689;28;20037;-78
2023/05/29 07:30:07;;;;;;;4.40;2.30;;;21.50;73.80;;;;;;5035557;28;20022;-77
2023/05/29 07:32:33;;;;;;;3.00;2.20;;;21.70;73.20;;;;;;5017651;28;20029;-77
2023/05/29 07:34:59;;;;;;;4.28;2.30;;;21.80;71.30;;;;;;5034943;28;20390;-77
2023/05/29 07:37:24;;;;;;;3.42;2.08;;;21.80;67.90;;;;;;5034726;28;20149;-77
2023/05/29 07:39:50;;;;;;;5.63;2.45;;;22.00;67.10;;;;;;5016551;28;20022;-76
2023/05/29 07:42:16;;;;;;;2.92;1.88;;;22.10;60.50;;;;;;5034537;28;20025;-76
2023/05/29 07:44:42;;;;;;;4.18;2.17;;;22.30;60.70;;;;;;5016629;28;20030;-76
2023/05/29 07:47:09;;;;;;;4.65;2.80;;;22.50;60.30;;;;;;5016802;28;20420;-75
2023/05/29 07:49:35;;;;;;;3.47;2.42;;;22.50;54.70;;;;;;5015236;28;20026;-77
2023/05/29 07:52:02;;;;;;;5.55;2.78;;;22.60;54.90;;;;;;5016494;28;20438;-77
2023/05/29 07:54:27;;;;;;;4.95;2.88;;;22.70;55.80;;;;;;5015985;28;20025;-75
2023/05/29 07:56:53;;;;;;;5.95;3.42;;;22.90;54.80;;;;;;5034014;28;20399;-77
2023/05/29 07:59:19;;;;;;;4.85;2.80;;;22.90;52.10;;;;;;5034303;28;20167;-77
2023/05/29 08:01:44;;;;;;;4.15;2.72;;;22.90;51.90;;;;;;5016251;28;20029;-75
2023/05/29 08:04:11;;;;;;;4.32;2.88;;;23.00;51.40;;;;;;5017716;28;20376;-77
2023/05/29 08:06:36;;;;;;;6.63;3.25;;;23.10;51.10;;;;;;5034186;28;20045;-76
2023/05/29 08:09:03;;;;;;;4.15;2.67;;;23.00;49.90;;;;;;5033883;28;20025;-76
2023/05/29 08:11:29;;;;;;;4.28;2.17;;;23.30;50.90;;;;;;5033398;28;20053;-75
2023/05/29 08:13:55;;;;;;;5.35;2.40;;;23.50;51.50;;;;;;5015754;28;20026;-77
2023/05/29 08:16:22;;;;;;;4.30;2.28;;;23.60;50.90;;;;;;5033831;28;20449;-76
2023/05/29 08:18:47;;;;;;;2.80;2.00;;;23.60;50.20;;;;;;5033582;28;20483;-76
2023/05/29 08:21:13;;;;;;;6.53;3.45;;;23.40;49.60;;;;;;5017637;28;20036;-76
2023/05/29 08:23:39;;;;;;;3.42;2.17;;;23.40;50.20;;;;;;5035751;28;20060;-76
2023/05/29 08:26:05;;;;;;;4.05;2.40;;;23.30;48.30;;;;;;5016657;28;20021;-76
2023/05/29 08:28:31;;;;;;;4.93;2.17;;;23.10;48.00;;;;;;5034133;28;20492;-76
2023/05/29 08:30:56;;;;;;;3.55;2.45;;;23.20;46.40;;;;;;5033805;28;20104;-75
2023/05/29 08:33:22;;;;;;;4.03;2.17;;;23.40;47.70;;;;;;5032601;28;20528;-76
2023/05/29 08:35:48;;;;;;;3.35;2.45;;;23.60;48.10;;;;;;5014831;28;20033;-76
2023/05/29 08:38:13;;;;;;;3.05;2.00;;;23.70;49.10;;;;;;5015056;28;20029;-77
2023/05/29 08:40:40;;;;;;;6.85;2.05;;;23.90;46.60;;;;;;5015801;28;20034;-75
2023/05/29 08:43:10;;;;;;;2.85;1.98;;;23.60;47.70;;;;;;5033138;28;20444;-75
2023/05/29 08:45:42;;;;;;;4.13;2.58;;;23.60;47.70;;;;;;5032983;28;20025;-76
2023/05/29 08:48:09;;;;;;;3.88;2.08;;;23.60;47.50;;;;;;5033255;28;20022;-76
2023/05/29 08:50:36;;;;;;;3.22;2.28;;;23.50;50.90;;;;;;5033342;28;20079;-80
2023/05/29 08:53:03;;;;;;;3.78;2.58;;;23.70;49.90;;;;;;5015364;28;20394;-75
2023/05/29 08:55:29;;;;;;;7.45;2.25;;;23.80;48.90;;;;;;5016380;28;20065;-78
2023/05/29 08:57:56;;;;;;;3.15;2.22;;;24.10;47.90;;;;;;5016237;28;20029;-76
2023/05/29 09:00:28;;;;;;;3.83;2.10;;;24.20;47.90;;;;;;5016444;28;20026;-75
2023/05/29 09:02:55;;;;;;;5.15;2.60;;;24.30;48.10;;;;;;5019386;28;20017;-77
2023/05/29 09:05:21;;;;;;;4.20;2.55;;;24.30;45.50;;;;;;5039288;28;20478;-76
2023/05/29 09:07:49;;;;;;;3.92;2.10;;;24.20;47.30;;;;;;5021024;28;20037;-75
2023/05/29 09:10:15;;;;;;;5.20;3.17;;;24.30;47.30;;;;;;5037405;28;20026;-76
2023/05/29 09:12:41;;;;;;;5.53;3.28;;;24.20;45.50;;;;;;5019029;28;20025;-75
2023/05/29 09:15:27;;;;;;;2.25;2.03;;;24.20;48.50;;;;;;5018847;28;20022;-75
2023/05/29 09:17:54;;;;;;;4.35;2.22;;;24.60;48.30;;;;;;5018464;28;20502;-76
2023/05/29 09:20:24;;;;;;;4.80;2.17;;;24.80;46.40;;;;;;5036541;28;20462;-75
2023/05/29 09:23:11;;;;;;;5.28;2.95;;;24.70;46.80;;;;;;5036795;28;20075;-75
2023/05/29 09:25:44;;;;;;;3.33;2.30;;;24.70;47.00;;;;;;5037146;28;20032;-75
2023/05/29 09:28:10;;;;;;;4.70;2.70;;;24.60;45.40;;;;;;5036790;28;20029;-76
2023/05/29 09:30:46;;;;;;;3.45;2.90;;;24.70;46.30;;;;;;5019097;28;20033;-75
2023/05/29 09:33:14;;;;;;;5.32;4.38;;;24.70;46.40;;;;;;5037105;28;20076;-75
2023/05/29 09:35:40;;;;;;;6.10;5.00;;;24.40;45.80;;;;;;5019312;28;20029;-75
2023/05/29 09:38:07;;;;;;;27.42;21.40;;;24.30;46.60;;;;;;5019236;28;20080;-75
2023/05/29 09:40:38;;;;;;;4.40;3.97;;;24.10;46.30;;;;;;5019758;28;20036;-75
2023/05/29 09:43:07;;;;;;;8.88;6.35;;;24.20;45.30;;;;;;5020528;28;20025;-76
2023/05/29 09:45:33;;;;;;;6.65;3.35;;;24.40;46.50;;;;;;5017510;28;20399;-77
2023/05/29 09:47:59;;;;;;;2.88;2.40;;;24.60;47.30;;;;;;5017411;28;20049;-77
2023/05/29 09:50:28;;;;;;;2.80;2.22;;;24.70;44.90;;;;;;5017855;28;20030;-75
2023/05/29 09:52:57;;;;;;;3.33;2.60;;;24.60;44.50;;;;;;5037418;28;20021;-76
2023/05/29 09:55:28;;;;;;;5.05;2.47;;;24.50;45.00;;;;;;5037188;28;20079;-75
2023/05/29 09:57:57;;;;;;;3.22;2.20;;;24.50;43.80;;;;;;5018535;28;20116;-75
2023/05/29 10:00:23;;;;;;;3.50;2.50;;;24.40;44.70;;;;;;5019948;28;20025;-75
2023/05/29 10:02:49;;;;;;;9.95;5.68;;;24.50;46.00;;;;;;5020009;28;20486;-76
2023/05/29 10:05:15;;;;;;;4.13;2.92;;;24.50;45.90;;;;;;5037569;28;20029;-77
2023/05/29 10:07:48;;;;;;;3.67;2.60;;;24.70;43.90;;;;;;5037234;28;20093;-76
2023/05/29 10:10:16;;;;;;;4.38;1.98;;;24.50;43.30;;;;;;5035867;28;20021;-77
2023/05/29 10:12:47;;;;;;;4.05;2.42;;;24.40;42.60;;;;;;5035096;28;20497;-77
2023/05/29 10:15:14;;;;;;;6.57;3.00;;;24.50;44.50;;;;;;5036084;28;20036;-77
2023/05/29 10:17:50;;;;;;;5.13;2.33;;;24.40;42.70;;;;;;5017474;28;20446;-76
2023/05/29 10:20:17;;;;;;;3.08;2.10;;;24.30;43.20;;;;;;5035162;28;20029;-75
2023/05/29 10:22:47;;;;;;;3.10;2.03;;;24.60;43.70;;;;;;5035104;28;20075;-76
2023/05/29 10:25:15;;;;;;;4.82;2.50;;;24.80;43.10;;;;;;5034363;28;20013;-77
2023/05/29 10:27:42;;;;;;;2.17;1.90;;;24.90;42.80;;;;;;5035373;28;20025;-76
2023/05/29 10:30:34;;;;;;;3.35;1.85;;;25.00;42.00;;;;;;5036678;28;20051;-76
2023/05/29 10:33:31;;;;;;;5.07;2.58;;;25.20;43.10;;;;;;5034934;28;20029;-77
2023/05/29 10:36:23;;;;;;;3.47;2.72;;;25.30;41.90;;;;;;5036698;28;20021;-76
2023/05/29 10:38:50;;;;;;;3.97;2.53;;;25.20;40.90;;;;;;5017127;28;20033;-76
2023/05/29 10:41:28;;;;;;;4.10;2.17;;;25.00;41.30;;;;;;5017901;28;20053;-77
2023/05/29 10:43:55;;;;;;;2.70;2.13;;;25.00;39.90;;;;;;5018327;28;20025;-76
2023/05/29 10:46:20;;;;;;;3.15;2.40;;;24.90;39.60;;;;;;5035137;28;20021;-77
2023/05/29 10:48:49;;;;;;;4.53;2.10;;;24.90;40.10;;;;;;5036130;28;20032;-76
2023/05/29 10:51:31;;;;;;;3.55;2.17;;;24.90;40.90;;;;;;5036910;28;20521;-77
2023/05/29 10:53:56;;;;;;;3.33;2.35;;;24.80;39.40;;;;;;5035115;28;20057;-77
2023/05/29 10:56:24;;;;;;;3.60;2.42;;;25.10;41.80;;;;;;5035647;28;20033;-77
2023/05/29 10:58:57;;;;;;;3.70;2.58;;;25.30;38.40;;;;;;5019417;28;20402;-76
2023/05/29 11:01:27;;;;;;;4.60;2.10;;;25.20;38.30;;;;;;5019890;28;20513;-75
2023/05/29 11:04:13;;;;;;;3.72;2.80;;;25.20;37.50;;;;;;5017598;28;20025;-77
2023/05/29 11:06:38;;;;;;;;;;;25.30;38.70;;;;;;5036210;28;20025;-75
2023/05/29 11:09:08;;;;;;;2.97;1.92;;;25.10;38.40;;;;;;5033740;28;20417;-77
2023/05/29 11:11:36;;;;;;;3.85;2.60;;;25.10;36.60;;;;;;5017254;28;20033;-77
2023/05/29 11:14:04;;;;;;;3.88;2.80;;;25.20;37.10;;;;;;5035503;28;20021;-76
2023/05/29 11:16:29;;;;;;;4.20;2.42;;;25.40;35.40;;;;;;5018049;28;20510;-76
2023/05/29 11:18:57;;;;;;;5.18;2.40;;;25.10;35.00;;;;;;5017575;28;20124;-76
2023/05/29 11:21:28;;;;;;;3.03;2.00;;;25.30;36.90;;;;;;5036385;28;20018;-79
2023/05/29 11:23:54;;;;;;;3.03;2.13;;;25.20;35.80;;;;;;5036524;28;20483;-76
2023/05/29 11:26:22;;;;;;;4.82;1.80;;;25.30;36.40;;;;;;5035404;28;20176;-77
2023/05/29 11:28:48;;;;;;;3.42;2.10;;;25.40;40.80;;;;;;5018633;28;20025;-74
2023/05/29 11:31:16;;;;;;;3.00;2.15;;;25.40;41.10;;;;;;5032134;28;20026;-77
2023/05/29 11:33:50;;;;;;;5.70;2.55;;;25.50;41.50;;;;;;5029714;28;20094;-77
2023/05/29 11:36:19;;;;;;;2.63;2.00;;;25.80;42.10;;;;;;5048714;28;20032;-76
2023/05/29 11:38:45;;;;;;;2.53;1.83;;;25.80;40.60;;;;;;5027996;28;20017;-78
2023/05/29 11:41:10;;;;;;;2.67;2.40;;;25.70;37.20;;;;;;5044672;28;20089;-77
2023/05/29 11:43:36;;;;;;;3.58;2.50;;;25.40;36.90;;;;;;5028103;28;20132;-78
2023/05/29 11:46:06;;;;;;;3.75;2.33;;;25.50;37.60;;;;;;5032037;28;20128;-77
2023/05/29 11:48:32;;;;;;;2.63;1.92;;;25.60;37.30;;;;;;5052052;28;20018;-77
2023/05/29 11:50:57;;;;;;;3.17;2.28;;;25.40;38.30;;;;;;5043874;28;20033;-77
2023/05/29 11:53:25;;;;;;;4.18;2.30;;;25.60;39.80;;;;;;5035649;28;20026;-76
2023/05/29 11:55:51;;;;;;;4.40;2.35;;;25.60;40.40;;;;;;5035643;28;20565;-76
2023/05/29 11:58:16;;;;;;;4.18;2.33;;;25.50;42.90;;;;;;5035578;28;20053;-76
2023/05/29 12:00:43;;;;;;;2.55;2.10;;;25.40;41.60;;;;;;5016791;28;20437;-77
2023/05/29 12:03:08;;;;;;;3.33;1.90;;;25.50;42.10;;;;;;5015772;28;20033;-76
2023/05/29 12:05:48;;;;;;;4.07;1.88;;;25.60;42.40;;;;;;5016216;28;20021;-76
2023/05/29 12:08:14;;;;;;;2.92;1.65;;;25.90;41.70;;;;;;5032647;28;20386;-76
2023/05/29 12:10:50;;;;;;;2.58;2.00;;;26.00;41.70;;;;;;5033192;28;20474;-77
2023/05/29 12:13:18;;;;;;;3.17;1.88;;;25.80;41.20;;;;;;5016130;28;20048;-75
2023/05/29 12:15:44;;;;;;;3.70;2.35;;;25.70;42.70;;;;;;5015608;28;20025;-76
2023/05/29 12:18:11;;;;;;;4.20;2.30;;;25.70;42.80;;;;;;5033095;28;20029;-75
2023/05/29 12:20:36;;;;;;;3.47;2.08;;;25.80;41.70;;;;;;5033411;28;20029;-77
2023/05/29 12:23:02;;;;;;;4.13;1.98;;;25.70;42.30;;;;;;5015598;28;20379;-75
2023/05/29 12:25:28;;;;;;;3.05;2.00;;;25.80;43.60;;;;;;5032092;28;20025;-74
2023/05/29 12:27:58;;;;;;;5.68;2.10;;;25.90;42.50;;;;;;5005209;28;20033;-75
2023/05/29 12:30:24;;;;;;;8.20;2.60;;;26.00;41.90;;;;;;5013669;28;20061;-77
2023/05/29 12:32:53;;;;;;;3.08;1.88;;;26.10;43.00;;;;;;5031918;28;20061;-76
2023/05/29 12:35:21;;;;;;;3.03;2.72;;;26.20;41.50;;;;;;5014226;28;20116;-76
2023/05/29 12:37:58;;;;;;;2.35;2.15;;;26.10;40.80;;;;;;5012193;28;20028;-75
2023/05/29 12:40:27;;;;;;;3.20;2.03;;;25.80;40.60;;;;;;5033101;28;20485;-75
2023/05/29 12:43:02;;;;;;;7.10;2.47;;;25.80;42.00;;;;;;5015107;28;20031;-75
2023/05/29 12:45:30;;;;;;;4.10;2.53;;;25.90;40.60;;;;;;5015231;28;20029;-76
2023/05/29 12:48:06;;;;;;;3.75;2.15;;;25.70;39.30;;;;;;5032880;28;20671;-75
2023/05/29 12:50:33;;;;;;;3.75;2.33;;;25.70;38.80;;;;;;5032707;28;20478;-76